Terminal Aerodrome Forecast
Issued by NWS

Home | Current Version | Previous Version | Text Only | Print | Product List | Glossary On
Versions: 1 2 3 4 5 6 7 8 9 10 11 12 13 14 15 16 17 18 19 20
000
FTUS43 KICT 161945 AAA
TAFCNU
TAF AMD
KCNU 161945Z 1620/1718 12007KT P6SM SCT040 BKN300
     FM170900 10005KT 3SM BR BKN300
     FM171100 11005KT 1SM BR SCT003 OVC250
     FM171500 VRB03KT 4SM BR BKN015=

USA.gov is the U.S. government's official web portal to all federal, state and local government web resources and services.